Time;durP1;ratioP1;P1;durP2;ratioP2;P2;SDS_P1;SDS_P2;PMS_P1;PMS_P2;Temp;Humidity;BMP_temperature;BMP_pressure;BME280_temperature;BME280_humidity;BME280_pressure;Samples;Min_cycle;Max_cycle;Signal;HPM_P1;HPM_P2
2022/12/21 00:01:28;;;;;;;0.15;0.15;;;;;;;8.46;100.00;100997.94;4985124;28;20126;-71
2022/12/21 00:03:55;;;;;;;0.20;0.20;;;;;;;8.41;100.00;100992.88;4983248;28;20057;-72
2022/12/21 00:06:21;;;;;;;0.10;0.10;;;;;;;8.49;100.00;100992.41;4982914;28;20101;-72
2022/12/21 00:08:48;;;;;;;0.10;0.10;;;;;;;7.81;100.00;100879.16;4980405;28;20129;-72
2022/12/21 00:11:14;;;;;;;0.10;0.10;;;;;;;8.38;100.00;100978.88;4977529;28;20061;-72
2022/12/21 00:13:40;;;;;;;0.10;0.10;;;;;;;8.44;100.00;100997.19;4978809;28;20034;-72
2022/12/21 00:16:07;;;;;;;0.10;0.10;;;;;;;8.29;100.00;100979.47;4983957;28;20034;-72
2022/12/21 00:18:33;;;;;;;0.10;0.10;;;;;;;8.26;100.00;100969.84;4977714;28;20112;-72
2022/12/21 00:21:01;;;;;;;0.10;0.10;;;;;;;8.32;100.00;100982.81;4981916;28;20373;-72
2022/12/21 00:23:27;;;;;;;0.10;0.10;;;;;;;8.39;100.00;100973.41;4980300;28;20535;-72
2022/12/21 00:25:53;;;;;;;0.10;0.10;;;;;;;8.15;100.00;100935.78;4981677;28;20651;-72
2022/12/21 00:28:18;;;;;;;0.20;0.20;;;;;;;8.47;100.00;100977.38;4982981;28;20032;-72
2022/12/21 00:30:43;;;;;;;0.10;0.10;;;;;;;8.36;100.00;100952.19;4986856;28;20076;-72
2022/12/21 00:33:08;;;;;;;0.13;0.13;;;;;;;8.46;100.00;100965.84;4983129;28;20040;-71
2022/12/21 00:35:34;;;;;;;0.17;0.17;;;;;;;8.20;100.00;100930.13;4981716;28;20031;-72
2022/12/21 00:37:59;;;;;;;0.10;0.10;;;;;;;8.51;100.00;100984.28;4979625;28;20045;-72
2022/12/21 00:40:24;;;;;;;0.10;0.10;;;;;;;8.49;100.00;100986.22;4980249;28;20101;-71
2022/12/21 00:42:50;;;;;;;0.10;0.10;;;;;;;8.54;100.00;100990.28;4974705;28;20157;-71
2022/12/21 00:45:15;;;;;;;0.15;0.15;;;;;;;8.28;100.00;100948.31;4983505;28;20042;-71
2022/12/21 00:47:40;;;;;;;0.10;0.10;;;;;;;8.57;100.00;101004.41;4978214;28;20574;-72
2022/12/21 00:50:06;;;;;;;0.10;0.10;;;;;;;8.50;100.00;100994.13;4982896;28;20132;-72
2022/12/21 00:52:31;;;;;;;0.10;0.10;;;;;;;8.36;100.00;100967.41;4985631;28;20030;-72
2022/12/21 00:54:57;;;;;;;0.10;0.10;;;;;;;8.41;100.00;100992.03;4983367;28;20404;-72
2022/12/21 00:57:22;;;;;;;0.10;0.10;;;;;;;8.39;100.00;101000.16;4987695;28;20026;-72
2022/12/21 00:59:47;;;;;;;0.10;0.10;;;;;;;8.30;100.00;101002.59;4985856;28;20077;-71
2022/12/21 01:02:12;;;;;;;0.10;0.10;;;;;;;8.22;100.00;100998.59;4978234;28;20617;-72
2022/12/21 01:04:38;;;;;;;0.17;0.17;;;;;;;7.71;100.00;100920.81;4981217;28;20037;-71
2022/12/21 01:07:03;;;;;;;0.17;0.17;;;;;;;8.35;100.00;101003.16;4981028;28;20066;-71
2022/12/21 01:09:28;;;;;;;0.10;0.10;;;;;;;8.30;100.00;101013.28;4982529;28;20117;-72
2022/12/21 01:11:54;;;;;;;0.17;0.17;;;;;;;8.17;100.00;100987.34;4978052;28;20030;-72
2022/12/21 01:14:19;;;;;;;0.13;0.13;;;;;;;8.17;100.00;101000.72;4981380;28;20090;-72
2022/12/21 01:16:44;;;;;;;0.10;0.10;;;;;;;8.28;100.00;101005.38;4979471;28;20456;-72
2022/12/21 01:19:10;;;;;;;0.10;0.10;;;;;;;8.25;100.00;101013.59;4980726;28;20037;-72
2022/12/21 01:21:36;;;;;;;0.10;0.10;;;;;;;7.93;100.00;100979.09;4976595;28;20031;-72
2022/12/21 01:24:02;;;;;;;0.10;0.10;;;;;;;8.14;100.00;101027.66;4979515;28;20037;-72
2022/12/21 01:26:28;;;;;;;0.15;0.15;;;;;;;7.79;100.00;100998.69;4975636;28;20126;-71
2022/12/21 01:28:53;;;;;;;0.10;0.10;;;;;;;7.93;100.00;100998.69;4980665;28;20057;-72
2022/12/21 01:31:19;;;;;;;0.10;0.10;;;;;;;7.72;100.00;100966.16;4978784;28;20039;-72
2022/12/21 01:33:44;;;;;;;0.20;0.20;;;;;;;7.99;100.00;101015.25;4979393;28;20042;-72
2022/12/21 01:36:12;;;;;;;0.10;0.10;;;;;;;8.20;100.00;101029.06;4974500;28;20034;-72
2022/12/21 01:38:39;;;;;;;0.10;0.10;;;;;;;8.20;100.00;101032.63;4981365;28;20184;-72
2022/12/21 01:41:05;;;;;;;0.20;0.20;;;;;;;8.16;100.00;101025.75;4978084;28;20113;-71
2022/12/21 01:43:57;;;;;;;0.10;0.10;;;;;;;8.06;100.00;101008.56;4983018;28;20388;-72
2022/12/21 01:46:41;;;;;;;0.20;0.20;;;;;;;8.08;100.00;101010.19;5000948;28;20468;-72
2022/12/21 01:49:17;;;;;;;0.20;0.20;;;;;;;8.01;100.00;101014.22;4982099;28;20038;-72
2022/12/21 01:51:46;;;;;;;0.10;0.10;;;;;;;8.13;100.00;101031.31;4993688;28;20496;-72
2022/12/21 01:54:19;;;;;;;0.20;0.20;;;;;;;7.89;100.00;101015.00;4982084;28;20409;-71
2022/12/21 01:56:47;;;;;;;0.10;0.10;;;;;;;7.96;100.00;101024.34;4984986;28;20368;-72
2022/12/21 01:59:22;;;;;;;0.10;0.10;;;;;;;7.70;100.00;100994.78;4988775;28;20057;-71
2022/12/21 02:01:47;;;;;;;0.20;0.20;;;;;;;7.95;100.00;101041.34;4979215;28;20026;-72
2022/12/21 02:04:12;;;;;;;0.20;0.20;;;;;;;7.92;100.00;101026.38;4985325;28;20385;-72
2022/12/21 02:06:41;;;;;;;0.20;0.20;;;;;;;7.93;100.00;101030.78;4982527;28;20030;-71
2022/12/21 02:09:07;;;;;;;0.10;0.10;;;;;;;7.69;100.00;100995.75;4979252;28;20052;-72
2022/12/21 02:11:32;;;;;;;0.20;0.20;;;;;;;7.73;100.00;101017.78;4983744;28;20120;-72
2022/12/21 02:13:58;;;;;;;0.10;0.10;;;;;;;7.85;100.00;101027.72;4978286;28;20125;-71
2022/12/21 02:16:31;;;;;;;0.13;0.13;;;;;;;7.87;100.00;101038.28;4967356;28;20079;-72
2022/12/21 02:19:34;;;;;;;0.15;0.15;;;;;;;7.80;100.00;101019.13;4977326;28;20076;-72
2022/12/21 02:22:05;;;;;;;0.10;0.10;;;;;;;7.82;100.00;101022.56;4980855;28;20053;-72
2022/12/21 02:25:00;;;;;;;0.10;0.10;;;;;;;7.82;100.00;101011.88;4984443;28;20038;-72
2022/12/21 02:27:48;;;;;;;0.20;0.20;;;;;;;7.64;100.00;100980.03;4981187;28;20065;-71
2022/12/21 02:30:18;;;;;;;0.10;0.10;;;;;;;7.79;100.00;101014.72;4984409;28;20037;-72
2022/12/21 02:32:50;;;;;;;0.20;0.20;;;;;;;7.79;100.00;101015.59;4980579;28;20378;-72
2022/12/21 02:35:31;;;;;;;0.10;0.10;;;;;;;7.72;100.00;101008.94;4982894;28;20034;-72
2022/12/21 02:38:06;;;;;;;0.20;0.20;;;;;;;7.69;100.00;101002.91;4978628;28;20034;-72
2022/12/21 02:41:00;;;;;;;0.20;0.20;;;;;;;7.72;100.00;101002.69;4964060;28;20112;-72
2022/12/21 02:44:14;;;;;;;0.22;0.22;;;;;;;7.44;100.00;100972.38;4983492;28;20034;-71
2022/12/21 02:47:04;;;;;;;0.10;0.10;;;;;;;7.09;100.00;100912.19;4978910;28;20040;-71
2022/12/21 02:49:39;;;;;;;0.10;0.10;;;;;;;7.59;100.00;100971.44;5005019;28;20569;-72
2022/12/21 02:52:14;;;;;;;0.13;0.13;;;;;;;7.70;100.00;100981.44;4991968;28;20030;-71
2022/12/21 02:54:40;;;;;;;0.20;0.20;;;;;;;7.85;100.00;100997.44;4977940;28;20061;-72
2022/12/21 02:57:05;;;;;;;0.10;0.10;;;;;;;7.81;100.00;101005.66;4979081;28;20073;-72
2022/12/21 02:59:34;;;;;;;0.20;0.20;;;;;;;7.84;100.00;101003.72;4981657;28;20034;-71
2022/12/21 03:02:34;;;;;;;0.20;0.20;;;;;;;7.81;100.00;100986.09;4990381;28;20416;-71
2022/12/21 03:05:15;;;;;;;0.17;0.17;;;;;;;7.84;100.00;100991.25;4989773;28;20491;-72
2022/12/21 03:08:01;;;;;;;0.10;0.10;;;;;;;7.73;100.00;100975.91;4977121;28;20108;-72
2022/12/21 03:10:53;;;;;;;0.20;0.20;;;;;;;7.85;100.00;101002.78;4981234;28;20045;-71
2022/12/21 03:13:43;;;;;;;0.20;0.20;;;;;;;7.76;100.00;101004.22;4976331;28;20113;-72
2022/12/21 03:16:25;;;;;;;0.20;0.20;;;;;;;7.65;100.00;101007.59;4981445;28;20042;-71
2022/12/21 03:18:56;;;;;;;0.20;0.20;;;;;;;7.70;100.00;101002.81;4981432;28;20482;-71
2022/12/21 03:21:41;;;;;;;0.20;0.20;;;;;;;7.58;100.00;101003.56;4982830;28;20042;-72
2022/12/21 03:24:10;;;;;;;0.20;0.20;;;;;;;7.57;100.00;100999.19;4984197;28;20058;-72
2022/12/21 03:26:40;;;;;;;0.20;0.20;;;;;;;7.58;100.00;100999.09;4978842;28;20034;-72
2022/12/21 03:29:08;;;;;;;0.20;0.20;;;;;;;7.52;100.00;100998.63;4985181;28;20373;-72
2022/12/21 03:31:38;;;;;;;0.25;0.25;;;;;;;7.63;100.00;100988.13;4975002;28;20185;-72
2022/12/21 03:34:08;;;;;;;0.20;0.20;;;;;;;7.44;100.00;100959.88;4980155;28;20030;-72
2022/12/21 03:36:40;;;;;;;0.20;0.20;;;;;;;7.51;100.00;100957.69;4982875;28;20415;-72
2022/12/21 03:39:10;;;;;;;0.30;0.30;;;;;;;7.66;100.00;100985.25;4985159;28;20022;-72
2022/12/21 03:41:42;;;;;;;0.20;0.20;;;;;;;7.63;100.00;100986.31;4974448;28;20081;-72
2022/12/21 03:44:10;;;;;;;0.20;0.20;;;;;;;7.46;100.00;100962.44;4983651;28;20030;-72
2022/12/21 03:46:58;;;;;;;0.20;0.20;;;;;;;7.65;100.00;100967.50;4984494;28;20085;-72
2022/12/21 03:49:38;;;;;;;0.30;0.30;;;;;;;7.68;100.00;100959.28;4982510;28;20030;-72
2022/12/21 03:52:24;;;;;;;0.30;0.30;;;;;;;7.63;100.00;100977.44;4979281;28;20488;-72
2022/12/21 03:55:04;;;;;;;0.20;0.20;;;;;;;7.68;100.00;100969.13;4998388;28;20037;-72
2022/12/21 03:57:29;;;;;;;0.20;0.20;;;;;;;7.73;100.00;100961.66;4980837;28;20468;-72
2022/12/21 03:59:56;;;;;;;0.20;0.20;;;;;;;7.72;100.00;100989.34;4983215;28;20049;-72
2022/12/21 04:02:37;;;;;;;0.20;0.20;;;;;;;7.63;100.00;100980.09;4978478;28;20034;-72
2022/12/21 04:05:16;;;;;;;0.22;0.22;;;;;;;7.59;100.00;100975.91;4979075;28;20049;-73
2022/12/21 04:07:42;;;;;;;0.20;0.20;;;;;;;7.55;100.00;100955.69;4974290;28;20389;-72
2022/12/21 04:10:10;;;;;;;0.30;0.30;;;;;;;7.71;100.00;100968.91;4995153;28;20072;-72
2022/12/21 04:12:36;;;;;;;0.20;0.20;;;;;;;7.50;100.00;100945.28;4975811;28;20080;-72
2022/12/21 04:15:02;;;;;;;0.17;0.17;;;;;;;7.53;100.00;100954.94;4980435;28;20034;-72
2022/12/21 04:17:27;;;;;;;0.20;0.20;;;;;;;7.32;100.00;100933.94;4975747;28;20027;-72
2022/12/21 04:19:58;;;;;;;0.20;0.20;;;;;;;7.55;100.00;100958.38;4983825;28;20342;-72
2022/12/21 04:28:07;;;;;;;0.20;0.20;;;;;;;7.60;100.00;100967.81;4985091;28;20037;-72
2022/12/21 04:30:33;;;;;;;0.20;0.20;;;;;;;7.26;100.00;100942.34;5000579;28;20049;-73
2022/12/21 04:32:58;;;;;;;0.20;0.20;;;;;;;7.49;100.00;100979.16;4985424;28;20030;-72
2022/12/21 04:35:23;;;;;;;0.25;0.25;;;;;;;6.70;100.00;100847.00;4981451;28;20389;-72
2022/12/21 04:37:49;;;;;;;0.20;0.20;;;;;;;7.60;100.00;100989.19;4978950;28;20019;-72
2022/12/21 04:40:14;;;;;;;0.30;0.30;;;;;;;7.43;100.00;100952.81;4979789;28;20114;-72
2022/12/21 04:42:39;;;;;;;0.30;0.30;;;;;;;7.66;100.00;100977.22;4975424;28;20296;-72
2022/12/21 04:45:05;;;;;;;0.20;0.20;;;;;;;7.42;100.00;100939.56;4966070;28;20399;-72
2022/12/21 04:47:31;;;;;;;0.30;0.30;;;;;;;7.71;100.00;100977.81;4981459;28;20065;-72
2022/12/21 04:49:56;;;;;;;0.20;0.20;;;;;;;7.45;100.00;100960.72;4974516;28;20031;-72
2022/12/21 04:52:22;;;;;;;0.30;0.30;;;;;;;7.59;100.00;100990.13;4973491;28;20074;-73
2022/12/21 04:54:47;;;;;;;0.30;0.30;;;;;;;7.68;100.00;100978.00;4981048;28;20552;-72
2022/12/21 04:57:12;;;;;;;0.20;0.20;;;;;;;7.69;100.00;100969.03;4980893;28;20499;-72
2022/12/21 04:59:38;;;;;;;0.30;0.30;;;;;;;7.65;100.00;100968.38;4980520;28;20026;-73
2022/12/21 05:02:03;;;;;;;0.20;0.20;;;;;;;7.73;100.00;100980.38;4980934;28;20026;-72
2022/12/21 05:04:29;;;;;;;0.30;0.30;;;;;;;7.60;100.00;100973.16;4981106;28;20061;-72
2022/12/21 05:06:56;;;;;;;0.20;0.20;;;;;;;7.53;100.00;100966.47;4984430;28;20081;-72
2022/12/21 05:09:22;;;;;;;0.20;0.20;;;;;;;7.48;100.00;100958.75;4981612;28;20058;-72
2022/12/21 05:11:48;;;;;;;0.30;0.30;;;;;;;7.59;100.00;100957.19;4977271;28;20026;-72
2022/12/21 05:14:13;;;;;;;0.30;0.30;;;;;;;7.56;100.00;100970.75;4979977;28;20571;-72
2022/12/21 05:16:39;;;;;;;0.20;0.20;;;;;;;7.68;100.00;100964.63;4977844;28;20037;-72
2022/12/21 05:19:04;;;;;;;0.22;0.22;;;;;;;7.52;100.00;100959.41;4980127;28;20612;-72
2022/12/21 05:21:29;;;;;;;0.20;0.20;;;;;;;7.33;100.00;100941.00;4976183;28;20030;-72
2022/12/21 05:23:55;;;;;;;0.20;0.20;;;;;;;7.46;100.00;100966.00;4982024;28;20536;-72
2022/12/21 05:26:20;;;;;;;0.20;0.20;;;;;;;7.37;100.00;100973.72;4983064;28;20034;-72
2022/12/21 05:28:46;;;;;;;0.20;0.20;;;;;;;7.37;100.00;100968.38;4985774;28;20148;-72
2022/12/21 05:31:13;;;;;;;0.15;0.15;;;;;;;7.43;100.00;100967.97;4983279;28;20026;-72
2022/12/21 05:33:39;;;;;;;0.20;0.20;;;;;;;7.30;100.00;100959.88;4976584;28;20026;-72
2022/12/21 05:36:06;;;;;;;0.20;0.20;;;;;;;7.10;100.00;100935.28;4979686;28;20532;-72
2022/12/21 05:38:32;;;;;;;0.20;0.20;;;;;;;7.16;100.00;100936.69;4983612;28;20037;-72
2022/12/21 05:40:57;;;;;;;0.20;0.20;;;;;;;7.21;100.00;100974.66;4985065;28;20026;-72
2022/12/21 05:43:25;;;;;;;0.20;0.20;;;;;;;7.23;100.00;100983.44;4984081;28;20035;-72
2022/12/21 05:45:51;;;;;;;0.20;0.20;;;;;;;7.31;100.00;100977.63;4980809;28;20085;-72
2022/12/21 05:48:16;;;;;;;0.20;0.20;;;;;;;7.27;100.00;100984.97;4982166;28;20038;-72
2022/12/21 05:50:42;;;;;;;0.20;0.20;;;;;;;7.30;100.00;100967.88;4982975;28;20037;-72
2022/12/21 05:53:08;;;;;;;0.17;0.17;;;;;;;7.20;100.00;100970.28;4981002;28;20037;-72
2022/12/21 05:55:33;;;;;;;0.15;0.15;;;;;;;7.05;100.00;100953.38;4981386;28;20041;-72
2022/12/21 05:57:59;;;;;;;0.20;0.20;;;;;;;7.22;100.00;100948.84;4982844;28;20472;-72
2022/12/21 06:00:24;;;;;;;0.20;0.20;;;;;;;7.08;100.00;100945.19;4980894;28;20030;-71
2022/12/21 06:02:49;;;;;;;0.10;0.10;;;;;;;7.03;100.00;100944.59;4983019;28;20030;-71
2022/12/21 06:05:15;;;;;;;0.20;0.20;;;;;;;6.93;100.00;100963.00;4985235;28;20108;-71
2022/12/21 06:07:40;;;;;;;0.20;0.20;;;;;;;6.92;100.00;100931.91;4983044;28;20457;-71
2022/12/21 06:10:06;;;;;;;0.10;0.10;;;;;;;6.85;100.00;100931.44;4983951;28;20062;-72
2022/12/21 06:12:32;;;;;;;0.20;0.20;;;;;;;6.82;100.00;100933.44;4976883;28;20050;-71
2022/12/21 06:14:57;;;;;;;0.20;0.20;;;;;;;6.81;100.00;100940.56;4972880;28;20034;-71
2022/12/21 06:17:23;;;;;;;0.10;0.10;;;;;;;6.82;100.00;100938.78;4980805;28;20042;-71
2022/12/21 06:19:48;;;;;;;0.17;0.17;;;;;;;6.07;100.00;100887.16;4974387;28;20034;-71
2022/12/21 06:22:14;;;;;;;0.10;0.10;;;;;;;6.66;100.00;100945.03;4976221;28;20038;-72
2022/12/21 06:24:39;;;;;;;0.20;0.20;;;;;;;6.47;100.00;100923.06;4977673;28;20081;-72
2022/12/21 06:27:04;;;;;;;0.20;0.20;;;;;;;6.73;100.00;100946.38;4976753;28;20522;-71
2022/12/21 06:29:31;;;;;;;0.22;0.22;;;;;;;6.59;100.00;100931.19;4973503;28;20058;-71
2022/12/21 06:31:56;;;;;;;0.20;0.20;;;;;;;6.33;100.00;100907.88;4976558;28;20026;-72
2022/12/21 06:34:21;;;;;;;0.20;0.20;;;;;;;6.34;100.00;100905.13;4976336;28;20053;-71
2022/12/21 06:36:47;;;;;;;0.20;0.20;;;;;;;6.59;100.00;100935.69;4976831;28;20137;-72
2022/12/21 06:39:12;;;;;;;0.28;0.28;;;;;;;6.60;100.00;100937.41;4989897;28;20169;-72
2022/12/21 06:41:37;;;;;;;0.20;0.20;;;;;;;6.43;100.00;100936.59;4971388;28;20034;-72
2022/12/21 06:44:03;;;;;;;0.30;0.30;;;;;;;6.63;100.00;100950.53;4977290;28;20030;-72
2022/12/21 06:46:28;;;;;;;0.10;0.10;;;;;;;6.17;100.00;100878.59;4972972;28;20030;-72
2022/12/21 06:48:54;;;;;;;0.20;0.20;;;;;;;6.72;100.00;100955.34;4975454;28;20473;-71
2022/12/21 06:51:21;;;;;;;0.30;0.30;;;;;;;6.73;100.00;100957.06;4972869;28;20073;-72
2022/12/21 06:53:48;;;;;;;0.20;0.20;;;;;;;6.78;100.00;100962.09;4978025;28;20026;-72
2022/12/21 06:56:16;;;;;;;0.20;0.20;;;;;;;6.74;100.00;100956.09;4974994;28;20056;-71
2022/12/21 06:58:41;;;;;;;0.20;0.20;;;;;;;6.85;100.00;100950.13;4973979;28;20018;-72
2022/12/21 07:01:10;;;;;;;0.20;0.20;;;;;;;6.79;100.00;100963.81;4979093;28;20023;-72
2022/12/21 07:03:35;;;;;;;0.20;0.20;;;;;;;6.80;100.00;100973.56;4977179;28;20022;-71
2022/12/21 07:06:01;;;;;;;0.20;0.20;;;;;;;6.81;100.00;100971.75;4974734;28;20358;-72
2022/12/21 07:08:27;;;;;;;0.20;0.20;;;;;;;6.62;100.00;100950.66;4970475;28;20022;-71
2022/12/21 07:11:01;;;;;;;0.20;0.20;;;;;;;6.59;100.00;100933.88;4976538;28;21338;-71
2022/12/21 07:13:27;;;;;;;0.20;0.20;;;;;;;6.79;100.00;100962.97;4978841;28;20026;-72
2022/12/21 07:15:53;;;;;;;0.20;0.20;;;;;;;6.69;100.00;100971.53;4978467;28;20105;-72
2022/12/21 07:18:19;;;;;;;0.20;0.20;;;;;;;6.67;100.00;100965.41;4973492;28;20026;-71
2022/12/21 07:20:44;;;;;;;0.20;0.20;;;;;;;6.55;100.00;100958.16;4985072;28;20034;-72
2022/12/21 07:23:10;;;;;;;0.20;0.20;;;;;;;6.72;100.00;100971.34;4984787;28;22601;-72
2022/12/21 07:25:35;;;;;;;0.20;0.20;;;;;;;6.57;100.00;100958.94;4982055;28;20045;-72
2022/12/21 07:28:01;;;;;;;0.20;0.20;;;;;;;6.57;100.00;100974.94;4979407;28;20026;-72
2022/12/21 07:30:26;;;;;;;0.20;0.20;;;;;;;6.45;100.00;100958.69;4981928;28;20039;-72
2022/12/21 07:32:53;;;;;;;0.20;0.20;;;;;;;6.71;100.00;100958.97;4969406;28;20101;-71
2022/12/21 07:35:19;;;;;;;0.20;0.20;;;;;;;6.54;100.00;100977.78;4980820;28;20037;-72
2022/12/21 07:37:44;;;;;;;0.20;0.20;;;;;;;6.22;100.00;100949.38;4982182;28;20053;-72
2022/12/21 07:40:10;;;;;;;0.10;0.10;;;;;;;6.28;100.00;100975.66;4984060;28;20038;-72
2022/12/21 07:42:35;;;;;;;0.15;0.15;;;;;;;6.27;100.00;101003.28;4982576;28;20064;-71
2022/12/21 07:45:01;;;;;;;0.20;0.20;;;;;;;6.28;100.00;100996.16;4994630;28;20050;-72
2022/12/21 07:47:26;;;;;;;0.20;0.20;;;;;;;6.19;100.00;100986.88;4978012;28;20038;-72
2022/12/21 07:49:51;;;;;;;0.15;0.15;;;;;;;6.21;100.00;100992.13;4976053;28;20170;-72
2022/12/21 07:52:17;;;;;;;0.20;0.20;;;;;;;6.31;100.00;100996.00;4982409;28;20034;-72
2022/12/21 07:54:42;;;;;;;0.20;0.20;;;;;;;6.20;100.00;101009.06;4986397;28;20153;-71
2022/12/21 07:57:07;;;;;;;0.20;0.20;;;;;;;6.28;100.00;101013.00;4979241;28;20034;-72
2022/12/21 07:59:33;;;;;;;0.20;0.20;;;;;;;6.04;100.00;100985.06;4985097;28;20077;-72
2022/12/21 08:01:58;;;;;;;0.20;0.20;;;;;;;6.12;100.00;100997.00;4990788;28;20121;-72
2022/12/21 08:04:23;;;;;;;0.10;0.10;;;;;;;6.24;100.00;101021.28;4985738;28;20084;-72
2022/12/21 08:06:49;;;;;;;0.20;0.20;;;;;;;6.28;100.00;101023.66;4974743;28;20492;-72
2022/12/21 08:09:14;;;;;;;0.20;0.20;;;;;;;6.13;100.00;101016.56;4983229;28;20100;-71
2022/12/21 08:11:40;;;;;;;0.20;0.20;;;;;;;6.24;100.00;101018.59;4990456;28;20045;-72
2022/12/21 08:14:06;;;;;;;0.20;0.20;;;;;;;6.35;100.00;101031.31;4980591;28;20468;-72
2022/12/21 08:16:31;;;;;;;0.10;0.10;;;;;;;6.37;100.00;101034.78;4984053;28;20022;-72
2022/12/21 08:18:57;;;;;;;0.20;0.20;;;;;;;6.34;100.00;101035.81;4982149;28;20259;-72
2022/12/21 08:21:22;;;;;;;0.10;0.10;;;;;;;6.38;100.00;101033.81;4979856;28;20030;-72
2022/12/21 08:23:48;;;;;;;0.10;0.10;;;;;;;6.38;100.00;101023.16;4983536;28;20042;-71
2022/12/21 08:26:14;;;;;;;0.20;0.20;;;;;;;6.26;100.00;101000.72;4965771;28;20053;-72
2022/12/21 08:28:40;;;;;;;0.20;0.20;;;;;;;6.52;100.00;101023.19;4986989;28;20026;-72
2022/12/21 08:31:08;;;;;;;0.20;0.20;;;;;;;6.42;100.00;101024.69;4985023;28;20084;-72
2022/12/21 08:33:33;;;;;;;0.20;0.20;;;;;;;6.37;100.00;101026.75;4979710;28;20052;-72
2022/12/21 08:35:59;;;;;;;0.20;0.20;;;;;;;6.22;100.00;101029.38;4983208;28;20520;-72
2022/12/21 08:38:24;;;;;;;0.20;0.20;;;;;;;6.32;100.00;101028.84;4974346;28;20077;-71
2022/12/21 08:40:51;;;;;;;0.20;0.20;;;;;;;6.45;100.00;101036.03;4969070;28;20030;-72
2022/12/21 08:43:16;;;;;;;0.20;0.20;;;;;;;6.55;100.00;101031.03;4983122;28;20077;-73
2022/12/21 08:45:41;;;;;;;0.20;0.20;;;;;;;6.31;100.00;101003.97;4987830;28;20030;-72
2022/12/21 08:48:07;;;;;;;0.10;0.10;;;;;;;6.16;100.00;100989.72;4986920;28;20339;-72
2022/12/21 08:50:32;;;;;;;0.10;0.10;;;;;;;6.42;100.00;101030.03;4980055;28;20038;-72
2022/12/21 08:52:57;;;;;;;0.20;0.20;;;;;;;6.25;100.00;101010.50;4981000;28;20030;-72
2022/12/21 08:55:23;;;;;;;0.20;0.20;;;;;;;6.30;100.00;100997.78;4988658;28;20534;-72
2022/12/21 08:57:48;;;;;;;0.20;0.20;;;;;;;6.71;100.00;101036.34;4978454;28;20121;-72
2022/12/21 09:00:14;;;;;;;0.10;0.10;;;;;;;6.66;100.00;101021.56;4976973;28;20030;-72
2022/12/21 09:02:39;;;;;;;0.30;0.30;;;;;;;6.61;100.00;101013.84;4983363;28;20053;-71
2022/12/21 09:05:04;;;;;;;0.20;0.20;;;;;;;6.64;100.00;101018.97;4986090;28;20046;-71
2022/12/21 09:07:30;;;;;;;0.20;0.20;;;;;;;6.85;100.00;101048.88;4980486;28;20049;-72
2022/12/21 09:09:55;;;;;;;0.20;0.20;;;;;;;6.82;100.00;101034.88;4984210;28;20471;-72
2022/12/21 09:12:20;;;;;;;0.20;0.20;;;;;;;6.97;100.00;101033.09;4982716;28;20622;-72
2022/12/21 09:14:46;;;;;;;0.20;0.20;;;;;;;6.65;100.00;100994.00;4985071;28;20064;-71
2022/12/21 09:17:11;;;;;;;0.20;0.20;;;;;;;6.92;100.00;101036.03;4992468;28;20022;-71
2022/12/21 09:19:36;;;;;;;0.15;0.15;;;;;;;7.03;100.00;101040.72;4987270;28;20049;-71
2022/12/21 09:22:02;;;;;;;0.20;0.20;;;;;;;7.00;100.00;101044.44;4975709;28;20030;-72
2022/12/21 09:24:27;;;;;;;0.20;0.20;;;;;;;6.92;100.00;101044.03;4984592;28;20030;-71
2022/12/21 09:26:52;;;;;;;0.20;0.20;;;;;;;6.93;100.00;101032.41;4984157;28;20449;-72
2022/12/21 09:29:19;;;;;;;0.20;0.20;;;;;;;6.79;100.00;101019.03;4985126;28;20034;-72
2022/12/21 09:31:45;;;;;;;0.17;0.17;;;;;;;7.05;100.00;101034.34;4987321;28;20069;-72
2022/12/21 09:34:11;;;;;;;0.20;0.20;;;;;;;6.99;100.00;101025.84;4984026;28;20144;-72
2022/12/21 09:36:36;;;;;;;0.25;0.25;;;;;;;7.07;100.00;101025.41;4983937;28;20510;-71
2022/12/21 09:39:01;;;;;;;0.10;0.10;;;;;;;6.96;100.00;101016.19;4980489;28;20030;-71
2022/12/21 09:41:38;;;;;;;0.20;0.20;;;;;;;7.11;100.00;101030.44;4982061;28;20041;-72
2022/12/21 09:44:13;;;;;;;0.20;0.20;;;;;;;7.19;100.00;101046.00;4987338;28;20145;-71
2022/12/21 09:46:40;;;;;;;0.20;0.20;;;;;;;7.16;100.00;101040.84;4987884;28;20347;-72
2022/12/21 09:49:13;;;;;;;0.20;0.20;;;;;;;7.13;100.00;101054.41;4987739;28;20030;-72
2022/12/21 09:51:41;;;;;;;0.20;0.20;;;;;;;7.11;100.00;101057.16;4980554;28;20034;-71
2022/12/21 09:54:12;;;;;;;0.25;0.25;;;;;;;7.52;100.00;101046.72;4980257;28;20389;-71
2022/12/21 09:56:40;;;;;;;0.20;0.20;;;;;;;7.35;100.00;101049.47;4983375;28;20113;-72
2022/12/21 09:59:15;;;;;;;0.10;0.10;;;;;;;7.22;100.00;101023.59;4999847;28;20031;-71
2022/12/21 10:01:48;;;;;;;0.20;0.20;;;;;;;7.45;100.00;101048.91;4983455;28;20049;-70
2022/12/21 10:04:42;;;;;;;0.20;0.20;;;;;;;7.62;100.00;101048.72;4967811;28;20030;-71
2022/12/21 10:07:48;;;;;;;0.15;0.15;;;;;;;7.43;100.00;101042.78;4976021;28;20023;-71
2022/12/21 10:10:21;;;;;;;0.20;0.20;;;;;;;7.53;100.00;101041.28;4980766;28;20450;-71
2022/12/21 10:12:52;;;;;;;0.20;0.20;;;;;;;7.66;100.00;101044.03;4981456;28;20034;-72
2022/12/21 10:15:30;;;;;;;0.30;0.30;;;;;;;7.63;100.00;101047.78;4978937;28;20105;-72
2022/12/21 10:18:16;;;;;;;0.30;0.30;;;;;;;7.83;100.00;101037.66;4978654;28;20360;-71
2022/12/21 10:21:10;;;;;;;0.20;0.20;;;;;;;7.89;100.00;101036.38;4972669;28;20030;-71
2022/12/21 10:23:41;;;;;;;0.20;0.20;;;;;;;8.08;100.00;101026.22;4973817;28;20034;-71
2022/12/21 10:26:12;;;;;;;0.22;0.22;;;;;;;7.96;100.00;101017.19;4978611;28;20333;-72
2022/12/21 10:28:54;;;;;;;0.20;0.20;;;;;;;7.49;100.00;100981.84;4983740;28;20038;-71
2022/12/21 10:31:45;;;;;;;0.20;0.20;;;;;;;7.90;100.00;101027.41;4978818;28;20041;-72
2022/12/21 10:34:19;;;;;;;0.30;0.30;;;;;;;7.73;100.00;101031.16;4977782;28;20038;-71
2022/12/21 10:36:46;;;;;;;0.28;0.28;;;;;;;7.89;100.00;101017.69;4977270;28;20041;-71
2022/12/21 10:39:15;;;;;;;0.20;0.20;;;;;;;8.06;100.00;101021.94;4996714;28;20026;-72
2022/12/21 10:41:43;;;;;;;0.30;0.30;;;;;;;8.03;100.00;101023.00;4970412;28;20034;-72
2022/12/21 10:44:10;;;;;;;0.20;0.20;;;;;;;7.91;100.00;101018.44;4984555;28;20108;-71
2022/12/21 10:46:37;;;;;;;0.20;0.20;;;;;;;8.00;100.00;101025.00;4978124;28;20192;-71
2022/12/21 10:49:24;;;;;;;0.20;0.20;;;;;;;8.03;100.00;101028.38;4975122;28;20027;-72
2022/12/21 10:51:49;;;;;;;0.20;0.20;;;;;;;8.02;100.00;101009.72;4974512;28;20034;-71
2022/12/21 10:54:24;;;;;;;0.20;0.20;;;;;;;8.00;100.00;101007.16;4979610;28;20034;-71
2022/12/21 10:56:51;;;;;;;0.20;0.20;;;;;;;7.79;100.00;101012.94;4980674;28;20025;-72
2022/12/21 10:59:30;;;;;;;0.20;0.20;;;;;;;8.08;100.00;101020.03;4977347;28;20038;-72
2022/12/21 11:01:56;;;;;;;0.20;0.20;;;;;;;7.93;100.00;100982.66;4961344;28;20033;-71
2022/12/21 11:04:21;;;;;;;0.25;0.25;;;;;;;8.30;100.00;101015.97;4976327;28;20205;-71
2022/12/21 11:07:21;;;;;;;0.20;0.20;;;;;;;8.11;100.00;101009.97;4980749;28;20489;-70
2022/12/21 11:09:55;;;;;;;0.20;0.20;;;;;;;7.95;100.00;101006.59;4982255;28;20034;-71
2022/12/21 11:12:25;;;;;;;0.20;0.20;;;;;;;7.89;100.00;100998.97;4980552;28;20489;-71
2022/12/21 11:14:55;;;;;;;0.20;0.20;;;;;;;8.07;100.00;100999.59;4985024;28;20038;-72
2022/12/21 11:17:20;;;;;;;0.20;0.20;;;;;;;7.92;100.00;100998.78;4980370;28;20097;-72
2022/12/21 11:19:47;;;;;;;0.30;0.30;;;;;;;8.01;100.00;100982.13;4978262;28;20695;-72
2022/12/21 11:22:13;;;;;;;0.22;0.22;;;;;;;8.12;100.00;101002.84;4977409;28;20030;-71
2022/12/21 11:24:39;;;;;;;0.20;0.20;;;;;;;8.23;100.00;100994.13;4988447;28;20052;-72
2022/12/21 11:27:28;;;;;;;0.15;0.15;;;;;;;7.92;100.00;100972.91;4980402;28;20158;-72
2022/12/21 11:30:04;;;;;;;0.30;0.30;;;;;;;8.28;100.00;101007.19;4987124;28;21573;-71
2022/12/21 11:32:30;;;;;;;0.20;0.20;;;;;;;8.21;100.00;101002.22;4986316;28;20030;-71
2022/12/21 11:34:59;;;;;;;0.20;0.20;;;;;;;8.19;100.00;101005.97;4976200;28;20035;-72
2022/12/21 11:37:36;;;;;;;0.20;0.20;;;;;;;8.11;100.00;101006.47;4984145;28;20430;-70
2022/12/21 11:40:10;;;;;;;0.20;0.20;;;;;;;8.06;100.00;101005.91;4975835;28;20162;-71